sensor_id;sensor_type;location;lat;lon;timestamp;P1;durP1;ratioP1;P2;durP2;ratioP2
41275;SDS011;27010;47.718;12.912;2024-01-07T00:02:48;3.23;;;1.60;;
41275;SDS011;27010;47.718;12.912;2024-01-07T00:05:50;1.60;;;1.30;;
41275;SDS011;27010;47.718;12.912;2024-01-07T00:08:53;2.93;;;1.47;;
41275;SDS011;27010;47.718;12.912;2024-01-07T00:11:55;2.00;;;1.40;;
41275;SDS011;27010;47.718;12.912;2024-01-07T00:14:57;2.17;;;1.23;;
41275;SDS011;27010;47.718;12.912;2024-01-07T00:17:59;2.33;;;1.30;;
41275;SDS011;27010;47.718;12.912;2024-01-07T00:21:02;1.77;;;1.00;;
41275;SDS011;27010;47.718;12.912;2024-01-07T00:24:04;2.03;;;1.10;;
41275;SDS011;27010;47.718;12.912;2024-01-07T00:27:07;1.70;;;1.03;;
41275;SDS011;27010;47.718;12.912;2024-01-07T00:30:10;2.50;;;0.93;;
41275;SDS011;27010;47.718;12.912;2024-01-07T00:33:13;1.70;;;0.97;;
41275;SDS011;27010;47.718;12.912;2024-01-07T00:36:15;1.57;;;0.67;;
41275;SDS011;27010;47.718;12.912;2024-01-07T00:39:17;0.80;;;0.60;;
41275;SDS011;27010;47.718;12.912;2024-01-07T00:42:19;1.83;;;0.90;;
41275;SDS011;27010;47.718;12.912;2024-01-07T00:45:21;1.87;;;0.97;;
41275;SDS011;27010;47.718;12.912;2024-01-07T00:48:24;1.53;;;0.90;;
41275;SDS011;27010;47.718;12.912;2024-01-07T00:51:26;0.90;;;0.70;;
41275;SDS011;27010;47.718;12.912;2024-01-07T00:54:29;1.00;;;0.70;;
41275;SDS011;27010;47.718;12.912;2024-01-07T00:57:31;1.10;;;0.90;;
41275;SDS011;27010;47.718;12.912;2024-01-07T01:00:36;0.80;;;0.80;;
41275;SDS011;27010;47.718;12.912;2024-01-07T01:03:38;1.00;;;0.80;;
41275;SDS011;27010;47.718;12.912;2024-01-07T01:06:40;1.20;;;0.80;;
41275;SDS011;27010;47.718;12.912;2024-01-07T01:09:42;3.83;;;1.00;;
41275;SDS011;27010;47.718;12.912;2024-01-07T01:12:44;3.73;;;0.90;;
41275;SDS011;27010;47.718;12.912;2024-01-07T01:15:46;1.17;;;1.00;;
41275;SDS011;27010;47.718;12.912;2024-01-07T01:18:49;1.07;;;0.80;;
41275;SDS011;27010;47.718;12.912;2024-01-07T01:21:53;1.17;;;0.80;;
41275;SDS011;27010;47.718;12.912;2024-01-07T01:24:55;0.80;;;0.73;;
41275;SDS011;27010;47.718;12.912;2024-01-07T01:27:58;0.80;;;0.70;;
41275;SDS011;27010;47.718;12.912;2024-01-07T01:31:00;0.90;;;0.80;;
41275;SDS011;27010;47.718;12.912;2024-01-07T01:34:02;1.20;;;0.90;;
41275;SDS011;27010;47.718;12.912;2024-01-07T01:37:05;0.83;;;0.77;;
41275;SDS011;27010;47.718;12.912;2024-01-07T01:40:07;1.10;;;1.00;;
41275;SDS011;27010;47.718;12.912;2024-01-07T01:43:10;1.10;;;0.90;;
41275;SDS011;27010;47.718;12.912;2024-01-07T01:46:12;1.30;;;0.80;;
41275;SDS011;27010;47.718;12.912;2024-01-07T01:49:15;0.60;;;0.60;;
41275;SDS011;27010;47.718;12.912;2024-01-07T01:52:18;1.20;;;0.80;;
41275;SDS011;27010;47.718;12.912;2024-01-07T01:55:21;0.60;;;0.60;;
41275;SDS011;27010;47.718;12.912;2024-01-07T01:58:23;0.60;;;0.60;;
41275;SDS011;27010;47.718;12.912;2024-01-07T02:01:26;2.70;;;0.77;;
41275;SDS011;27010;47.718;12.912;2024-01-07T02:04:28;1.70;;;0.70;;
41275;SDS011;27010;47.718;12.912;2024-01-07T02:07:30;0.90;;;0.80;;
41275;SDS011;27010;47.718;12.912;2024-01-07T02:10:33;0.80;;;0.80;;
41275;SDS011;27010;47.718;12.912;2024-01-07T02:13:36;0.90;;;0.70;;
41275;SDS011;27010;47.718;12.912;2024-01-07T02:16:39;1.20;;;0.90;;
41275;SDS011;27010;47.718;12.912;2024-01-07T02:19:42;0.80;;;0.80;;
41275;SDS011;27010;47.718;12.912;2024-01-07T02:22:44;0.70;;;0.70;;
41275;SDS011;27010;47.718;12.912;2024-01-07T02:25:47;0.80;;;0.70;;
41275;SDS011;27010;47.718;12.912;2024-01-07T02:28:49;2.17;;;0.90;;
41275;SDS011;27010;47.718;12.912;2024-01-07T02:31:52;0.90;;;0.80;;
41275;SDS011;27010;47.718;12.912;2024-01-07T02:34:54;0.73;;;0.73;;
41275;SDS011;27010;47.718;12.912;2024-01-07T02:37:56;0.70;;;0.70;;
41275;SDS011;27010;47.718;12.912;2024-01-07T02:40:59;1.17;;;0.77;;
41275;SDS011;27010;47.718;12.912;2024-01-07T02:44:01;0.83;;;0.80;;
41275;SDS011;27010;47.718;12.912;2024-01-07T02:47:03;1.00;;;0.90;;
41275;SDS011;27010;47.718;12.912;2024-01-07T02:50:05;0.70;;;0.60;;
41275;SDS011;27010;47.718;12.912;2024-01-07T02:53:08;1.53;;;1.00;;
41275;SDS011;27010;47.718;12.912;2024-01-07T02:56:12;1.10;;;0.80;;
41275;SDS011;27010;47.718;12.912;2024-01-07T02:59:14;0.93;;;0.83;;
41275;SDS011;27010;47.718;12.912;2024-01-07T03:02:16;0.93;;;0.70;;
41275;SDS011;27010;47.718;12.912;2024-01-07T03:05:18;1.30;;;0.93;;
41275;SDS011;27010;47.718;12.912;2024-01-07T03:08:22;1.50;;;1.40;;
41275;SDS011;27010;47.718;12.912;2024-01-07T03:11:24;1.60;;;1.50;;
41275;SDS011;27010;47.718;12.912;2024-01-07T03:14:26;4.17;;;2.10;;
41275;SDS011;27010;47.718;12.912;2024-01-07T03:17:28;1.47;;;1.17;;
41275;SDS011;27010;47.718;12.912;2024-01-07T03:20:30;1.27;;;1.17;;
41275;SDS011;27010;47.718;12.912;2024-01-07T03:23:32;1.20;;;1.10;;
41275;SDS011;27010;47.718;12.912;2024-01-07T03:26:35;2.03;;;1.50;;
41275;SDS011;27010;47.718;12.912;2024-01-07T03:29:37;1.77;;;1.37;;
41275;SDS011;27010;47.718;12.912;2024-01-07T03:32:42;1.50;;;1.20;;
41275;SDS011;27010;47.718;12.912;2024-01-07T03:35:44;1.50;;;1.27;;
41275;SDS011;27010;47.718;12.912;2024-01-07T03:38:48;1.70;;;1.60;;
41275;SDS011;27010;47.718;12.912;2024-01-07T03:41:54;1.87;;;1.47;;
41275;SDS011;27010;47.718;12.912;2024-01-07T03:44:57;1.90;;;1.40;;
41275;SDS011;27010;47.718;12.912;2024-01-07T03:47:59;1.60;;;1.43;;
41275;SDS011;27010;47.718;12.912;2024-01-07T03:51:01;2.00;;;1.67;;
41275;SDS011;27010;47.718;12.912;2024-01-07T03:54:04;2.23;;;1.33;;
41275;SDS011;27010;47.718;12.912;2024-01-07T03:57:06;1.93;;;1.50;;
41275;SDS011;27010;47.718;12.912;2024-01-07T04:00:08;2.97;;;1.70;;
41275;SDS011;27010;47.718;12.912;2024-01-07T04:03:11;1.67;;;1.40;;
41275;SDS011;27010;47.718;12.912;2024-01-07T04:06:13;1.57;;;1.43;;
41275;SDS011;27010;47.718;12.912;2024-01-07T04:09:16;1.83;;;1.47;;
41275;SDS011;27010;47.718;12.912;2024-01-07T04:12:18;2.23;;;1.47;;
41275;SDS011;27010;47.718;12.912;2024-01-07T04:15:20;2.50;;;1.80;;
41275;SDS011;27010;47.718;12.912;2024-01-07T04:18:22;8.60;;;1.70;;
41275;SDS011;27010;47.718;12.912;2024-01-07T04:21:25;3.97;;;1.80;;
41275;SDS011;27010;47.718;12.912;2024-01-07T04:24:27;2.40;;;2.00;;
41275;SDS011;27010;47.718;12.912;2024-01-07T04:27:29;6.87;;;2.10;;
41275;SDS011;27010;47.718;12.912;2024-01-07T04:30:31;3.17;;;2.47;;
41275;SDS011;27010;47.718;12.912;2024-01-07T04:33:34;2.73;;;1.97;;
41275;SDS011;27010;47.718;12.912;2024-01-07T04:36:36;2.07;;;1.73;;
41275;SDS011;27010;47.718;12.912;2024-01-07T04:39:38;3.30;;;2.03;;
41275;SDS011;27010;47.718;12.912;2024-01-07T04:42:41;2.83;;;2.40;;
41275;SDS011;27010;47.718;12.912;2024-01-07T04:45:44;2.77;;;2.43;;
41275;SDS011;27010;47.718;12.912;2024-01-07T04:48:46;2.43;;;1.90;;
41275;SDS011;27010;47.718;12.912;2024-01-07T04:51:48;3.33;;;2.40;;
41275;SDS011;27010;47.718;12.912;2024-01-07T04:54:51;3.53;;;2.97;;
41275;SDS011;27010;47.718;12.912;2024-01-07T04:57:53;4.87;;;3.40;;
41275;SDS011;27010;47.718;12.912;2024-01-07T05:00:55;4.97;;;3.63;;
41275;SDS011;27010;47.718;12.912;2024-01-07T05:03:58;5.00;;;3.17;;
41275;SDS011;27010;47.718;12.912;2024-01-07T05:07:00;5.07;;;3.60;;
41275;SDS011;27010;47.718;12.912;2024-01-07T05:10:02;4.80;;;3.50;;
41275;SDS011;27010;47.718;12.912;2024-01-07T05:13:06;4.47;;;3.53;;
41275;SDS011;27010;47.718;12.912;2024-01-07T05:16:08;6.67;;;4.00;;
41275;SDS011;27010;47.718;12.912;2024-01-07T05:19:10;5.90;;;3.80;;
41275;SDS011;27010;47.718;12.912;2024-01-07T05:22:13;5.30;;;3.77;;
41275;SDS011;27010;47.718;12.912;2024-01-07T05:25:15;4.80;;;3.37;;
41275;SDS011;27010;47.718;12.912;2024-01-07T05:28:18;4.87;;;3.57;;
41275;SDS011;27010;47.718;12.912;2024-01-07T05:31:22;5.97;;;3.47;;
41275;SDS011;27010;47.718;12.912;2024-01-07T05:34:24;5.77;;;4.10;;
41275;SDS011;27010;47.718;12.912;2024-01-07T05:37:26;5.37;;;3.90;;
41275;SDS011;27010;47.718;12.912;2024-01-07T05:40:29;7.73;;;4.03;;
41275;SDS011;27010;47.718;12.912;2024-01-07T05:43:31;6.33;;;4.13;;
41275;SDS011;27010;47.718;12.912;2024-01-07T05:46:33;5.40;;;3.77;;
41275;SDS011;27010;47.718;12.912;2024-01-07T05:49:35;4.93;;;3.97;;
41275;SDS011;27010;47.718;12.912;2024-01-07T05:52:37;5.40;;;3.87;;
41275;SDS011;27010;47.718;12.912;2024-01-07T05:55:39;4.70;;;3.73;;
41275;SDS011;27010;47.718;12.912;2024-01-07T05:58:42;4.73;;;3.93;;
41275;SDS011;27010;47.718;12.912;2024-01-07T06:01:44;5.93;;;3.90;;
41275;SDS011;27010;47.718;12.912;2024-01-07T06:04:46;10.80;;;4.30;;
41275;SDS011;27010;47.718;12.912;2024-01-07T06:07:48;11.20;;;4.50;;
41275;SDS011;27010;47.718;12.912;2024-01-07T06:10:50;10.27;;;4.30;;
41275;SDS011;27010;47.718;12.912;2024-01-07T06:13:54;5.27;;;3.80;;
41275;SDS011;27010;47.718;12.912;2024-01-07T06:16:56;7.30;;;4.27;;
41275;SDS011;27010;47.718;12.912;2024-01-07T06:19:58;11.97;;;4.37;;
41275;SDS011;27010;47.718;12.912;2024-01-07T06:23:01;22.60;;;4.60;;
41275;SDS011;27010;47.718;12.912;2024-01-07T06:26:03;18.43;;;4.97;;
41275;SDS011;27010;47.718;12.912;2024-01-07T06:29:05;10.00;;;4.07;;
41275;SDS011;27010;47.718;12.912;2024-01-07T06:32:07;10.30;;;3.93;;
41275;SDS011;27010;47.718;12.912;2024-01-07T06:35:11;7.07;;;4.17;;
41275;SDS011;27010;47.718;12.912;2024-01-07T06:38:13;5.40;;;3.63;;
41275;SDS011;27010;47.718;12.912;2024-01-07T06:41:17;5.47;;;3.57;;
41275;SDS011;27010;47.718;12.912;2024-01-07T06:44:19;7.07;;;4.17;;
41275;SDS011;27010;47.718;12.912;2024-01-07T06:47:21;5.67;;;3.23;;
41275;SDS011;27010;47.718;12.912;2024-01-07T06:50:26;6.00;;;3.87;;
41275;SDS011;27010;47.718;12.912;2024-01-07T06:53:28;4.77;;;3.33;;
41275;SDS011;27010;47.718;12.912;2024-01-07T06:56:30;6.27;;;4.00;;
41275;SDS011;27010;47.718;12.912;2024-01-07T06:59:33;6.33;;;3.80;;
41275;SDS011;27010;47.718;12.912;2024-01-07T07:02:35;6.20;;;3.33;;
41275;SDS011;27010;47.718;12.912;2024-01-07T07:05:37;3.03;;;2.50;;
41275;SDS011;27010;47.718;12.912;2024-01-07T07:08:39;3.40;;;2.57;;
41275;SDS011;27010;47.718;12.912;2024-01-07T07:11:42;3.30;;;2.57;;
41275;SDS011;27010;47.718;12.912;2024-01-07T07:14:44;3.37;;;2.80;;
41275;SDS011;27010;47.718;12.912;2024-01-07T07:17:48;3.20;;;2.67;;
41275;SDS011;27010;47.718;12.912;2024-01-07T07:20:50;3.90;;;2.93;;
41275;SDS011;27010;47.718;12.912;2024-01-07T07:23:53;4.53;;;3.27;;
41275;SDS011;27010;47.718;12.912;2024-01-07T07:26:55;3.53;;;2.83;;
41275;SDS011;27010;47.718;12.912;2024-01-07T07:29:58;5.43;;;3.10;;
41275;SDS011;27010;47.718;12.912;2024-01-07T07:33:00;3.70;;;2.90;;
41275;SDS011;27010;47.718;12.912;2024-01-07T07:36:03;3.70;;;3.03;;
41275;SDS011;27010;47.718;12.912;2024-01-07T07:39:06;4.63;;;3.67;;
41275;SDS011;27010;47.718;12.912;2024-01-07T07:42:08;5.10;;;4.03;;
41275;SDS011;27010;47.718;12.912;2024-01-07T07:45:12;4.57;;;3.50;;
41275;SDS011;27010;47.718;12.912;2024-01-07T07:48:14;6.70;;;4.10;;
41275;SDS011;27010;47.718;12.912;2024-01-07T07:51:16;7.57;;;4.93;;
41275;SDS011;27010;47.718;12.912;2024-01-07T07:54:19;10.90;;;4.67;;
41275;SDS011;27010;47.718;12.912;2024-01-07T07:57:21;7.23;;;5.13;;
41275;SDS011;27010;47.718;12.912;2024-01-07T08:00:23;8.50;;;5.60;;
41275;SDS011;27010;47.718;12.912;2024-01-07T08:03:26;7.90;;;5.50;;
41275;SDS011;27010;47.718;12.912;2024-01-07T08:06:28;7.30;;;4.83;;
41275;SDS011;27010;47.718;12.912;2024-01-07T08:09:30;5.00;;;4.20;;
41275;SDS011;27010;47.718;12.912;2024-01-07T08:12:33;8.30;;;5.03;;
41275;SDS011;27010;47.718;12.912;2024-01-07T08:15:35;6.27;;;5.23;;
41275;SDS011;27010;47.718;12.912;2024-01-07T08:18:39;9.73;;;5.93;;
41275;SDS011;27010;47.718;12.912;2024-01-07T08:21:42;18.40;;;10.57;;
41275;SDS011;27010;47.718;12.912;2024-01-07T08:24:45;10.27;;;7.27;;
41275;SDS011;27010;47.718;12.912;2024-01-07T08:27:47;9.63;;;7.10;;
41275;SDS011;27010;47.718;12.912;2024-01-07T08:30:53;12.17;;;7.20;;
41275;SDS011;27010;47.718;12.912;2024-01-07T08:33:55;4.27;;;3.23;;
41275;SDS011;27010;47.718;12.912;2024-01-07T08:36:57;5.10;;;3.30;;
41275;SDS011;27010;47.718;12.912;2024-01-07T08:40:00;3.77;;;3.03;;
41275;SDS011;27010;47.718;12.912;2024-01-07T08:43:02;2.43;;;2.03;;
41275;SDS011;27010;47.718;12.912;2024-01-07T08:46:04;2.20;;;1.40;;
41275;SDS011;27010;47.718;12.912;2024-01-07T08:49:07;1.53;;;0.90;;
41275;SDS011;27010;47.718;12.912;2024-01-07T08:52:09;1.07;;;0.97;;
41275;SDS011;27010;47.718;12.912;2024-01-07T08:55:12;1.83;;;1.03;;
41275;SDS011;27010;47.718;12.912;2024-01-07T08:58:15;2.20;;;1.23;;
41275;SDS011;27010;47.718;12.912;2024-01-07T09:01:19;1.17;;;1.00;;
41275;SDS011;27010;47.718;12.912;2024-01-07T09:04:21;1.63;;;1.10;;
41275;SDS011;27010;47.718;12.912;2024-01-07T09:07:23;1.93;;;1.10;;
41275;SDS011;27010;47.718;12.912;2024-01-07T09:10:25;4.43;;;2.17;;
41275;SDS011;27010;47.718;12.912;2024-01-07T09:13:28;1.50;;;1.20;;
41275;SDS011;27010;47.718;12.912;2024-01-07T09:16:30;1.90;;;1.57;;
41275;SDS011;27010;47.718;12.912;2024-01-07T09:19:33;1.20;;;1.10;;
41275;SDS011;27010;47.718;12.912;2024-01-07T09:22:35;1.80;;;1.60;;
41275;SDS011;27010;47.718;12.912;2024-01-07T09:25:38;2.17;;;1.33;;
41275;SDS011;27010;47.718;12.912;2024-01-07T09:28:40;2.27;;;1.87;;
41275;SDS011;27010;47.718;12.912;2024-01-07T09:31:44;1.87;;;1.50;;
41275;SDS011;27010;47.718;12.912;2024-01-07T09:34:46;4.40;;;1.70;;
41275;SDS011;27010;47.718;12.912;2024-01-07T09:37:52;2.07;;;1.87;;
41275;SDS011;27010;47.718;12.912;2024-01-07T09:40:54;2.27;;;1.63;;
41275;SDS011;27010;47.718;12.912;2024-01-07T09:43:58;2.77;;;1.90;;
41275;SDS011;27010;47.718;12.912;2024-01-07T09:47:01;1.93;;;1.73;;
41275;SDS011;27010;47.718;12.912;2024-01-07T09:50:05;1.57;;;1.47;;
41275;SDS011;27010;47.718;12.912;2024-01-07T09:53:11;2.90;;;2.30;;
41275;SDS011;27010;47.718;12.912;2024-01-07T09:56:23;4.73;;;3.13;;
41275;SDS011;27010;47.718;12.912;2024-01-07T09:59:27;3.00;;;2.30;;
41275;SDS011;27010;47.718;12.912;2024-01-07T10:02:30;2.67;;;2.30;;
41275;SDS011;27010;47.718;12.912;2024-01-07T10:05:32;3.20;;;2.40;;
41275;SDS011;27010;47.718;12.912;2024-01-07T10:08:35;3.83;;;2.50;;
41275;SDS011;27010;47.718;12.912;2024-01-07T10:11:37;3.40;;;2.40;;
41275;SDS011;27010;47.718;12.912;2024-01-07T10:14:40;3.30;;;2.73;;
41275;SDS011;27010;47.718;12.912;2024-01-07T10:17:44;3.13;;;2.70;;
41275;SDS011;27010;47.718;12.912;2024-01-07T10:20:47;5.57;;;2.70;;
41275;SDS011;27010;47.718;12.912;2024-01-07T10:23:49;2.70;;;2.37;;
41275;SDS011;27010;47.718;12.912;2024-01-07T10:26:52;2.90;;;2.60;;
41275;SDS011;27010;47.718;12.912;2024-01-07T10:29:54;6.87;;;2.57;;
41275;SDS011;27010;47.718;12.912;2024-01-07T10:32:57;2.80;;;2.37;;
41275;SDS011;27010;47.718;12.912;2024-01-07T10:36:01;3.53;;;2.70;;
41275;SDS011;27010;47.718;12.912;2024-01-07T10:39:07;2.93;;;2.63;;
41275;SDS011;27010;47.718;12.912;2024-01-07T10:42:09;2.37;;;2.17;;
41275;SDS011;27010;47.718;12.912;2024-01-07T10:45:12;2.07;;;1.80;;
41275;SDS011;27010;47.718;12.912;2024-01-07T10:48:19;2.20;;;1.93;;
41275;SDS011;27010;47.718;12.912;2024-01-07T10:51:21;2.30;;;2.10;;
41275;SDS011;27010;47.718;12.912;2024-01-07T10:54:24;2.50;;;1.93;;
41275;SDS011;27010;47.718;12.912;2024-01-07T11:02:05;1.77;;;1.67;;
41275;SDS011;27010;47.718;12.912;2024-01-07T11:05:11;2.73;;;1.80;;
41275;SDS011;27010;47.718;12.912;2024-01-07T11:08:23;2.60;;;2.00;;
41275;SDS011;27010;47.718;12.912;2024-01-07T11:11:37;2.50;;;1.87;;
41275;SDS011;27010;47.718;12.912;2024-01-07T11:14:43;3.63;;;2.10;;
41275;SDS011;27010;47.718;12.912;2024-01-07T11:17:54;2.80;;;1.90;;
41275;SDS011;27010;47.718;12.912;2024-01-07T11:21:00;2.87;;;2.30;;
41275;SDS011;27010;47.718;12.912;2024-01-07T11:24:03;3.10;;;2.63;;
41275;SDS011;27010;47.718;12.912;2024-01-07T11:27:08;4.43;;;3.37;;
41275;SDS011;27010;47.718;12.912;2024-01-07T11:30:20;4.33;;;3.47;;
41275;SDS011;27010;47.718;12.912;2024-01-07T11:33:22;6.17;;;3.80;;
41275;SDS011;27010;47.718;12.912;2024-01-07T11:36:35;3.57;;;3.13;;
41275;SDS011;27010;47.718;12.912;2024-01-07T11:39:38;3.40;;;2.90;;
41275;SDS011;27010;47.718;12.912;2024-01-07T11:42:51;4.00;;;3.40;;
41275;SDS011;27010;47.718;12.912;2024-01-07T11:45:53;5.57;;;4.33;;
41275;SDS011;27010;47.718;12.912;2024-01-07T11:48:58;5.67;;;4.00;;
41275;SDS011;27010;47.718;12.912;2024-01-07T11:52:01;5.53;;;4.57;;
41275;SDS011;27010;47.718;12.912;2024-01-07T11:55:06;8.20;;;5.10;;
41275;SDS011;27010;47.718;12.912;2024-01-07T11:58:10;8.27;;;5.43;;
41275;SDS011;27010;47.718;12.912;2024-01-07T12:01:15;6.17;;;4.37;;
41275;SDS011;27010;47.718;12.912;2024-01-07T12:04:18;3.97;;;3.33;;
41275;SDS011;27010;47.718;12.912;2024-01-07T12:07:22;5.67;;;4.03;;
41275;SDS011;27010;47.718;12.912;2024-01-07T12:10:24;5.63;;;4.20;;
41275;SDS011;27010;47.718;12.912;2024-01-07T12:13:27;3.93;;;2.93;;
41275;SDS011;27010;47.718;12.912;2024-01-07T12:16:29;4.73;;;3.30;;
41275;SDS011;27010;47.718;12.912;2024-01-07T12:19:32;4.93;;;2.87;;
41275;SDS011;27010;47.718;12.912;2024-01-07T12:22:38;4.27;;;3.00;;
41275;SDS011;27010;47.718;12.912;2024-01-07T12:25:40;3.97;;;3.00;;
41275;SDS011;27010;47.718;12.912;2024-01-07T12:28:42;4.10;;;3.30;;
41275;SDS011;27010;47.718;12.912;2024-01-07T12:31:45;4.47;;;3.23;;
41275;SDS011;27010;47.718;12.912;2024-01-07T12:34:49;3.73;;;3.33;;
41275;SDS011;27010;47.718;12.912;2024-01-07T12:37:52;3.43;;;3.13;;
41275;SDS011;27010;47.718;12.912;2024-01-07T12:40:54;5.93;;;2.70;;
41275;SDS011;27010;47.718;12.912;2024-01-07T12:43:57;2.43;;;2.13;;
41275;SDS011;27010;47.718;12.912;2024-01-07T12:46:59;4.10;;;3.00;;
41275;SDS011;27010;47.718;12.912;2024-01-07T12:50:01;3.77;;;2.80;;
41275;SDS011;27010;47.718;12.912;2024-01-07T12:53:03;4.87;;;3.53;;
41275;SDS011;27010;47.718;12.912;2024-01-07T12:56:07;4.43;;;3.17;;
41275;SDS011;27010;47.718;12.912;2024-01-07T12:59:09;3.97;;;3.00;;
41275;SDS011;27010;47.718;12.912;2024-01-07T13:02:11;3.97;;;2.97;;
41275;SDS011;27010;47.718;12.912;2024-01-07T13:05:14;4.73;;;2.90;;
41275;SDS011;27010;47.718;12.912;2024-01-07T13:08:16;4.43;;;3.33;;
41275;SDS011;27010;47.718;12.912;2024-01-07T13:11:24;4.63;;;3.30;;
41275;SDS011;27010;47.718;12.912;2024-01-07T13:14:26;4.50;;;3.27;;
41275;SDS011;27010;47.718;12.912;2024-01-07T13:17:29;5.03;;;3.70;;
41275;SDS011;27010;47.718;12.912;2024-01-07T13:20:32;4.13;;;3.70;;
41275;SDS011;27010;47.718;12.912;2024-01-07T13:23:39;5.50;;;4.03;;
41275;SDS011;27010;47.718;12.912;2024-01-07T13:26:46;5.83;;;4.50;;
41275;SDS011;27010;47.718;12.912;2024-01-07T13:29:49;4.97;;;4.47;;
41275;SDS011;27010;47.718;12.912;2024-01-07T13:32:54;5.87;;;4.57;;
41275;SDS011;27010;47.718;12.912;2024-01-07T13:35:59;4.87;;;4.10;;
41275;SDS011;27010;47.718;12.912;2024-01-07T13:39:02;5.30;;;4.00;;
41275;SDS011;27010;47.718;12.912;2024-01-07T13:42:04;5.80;;;4.70;;
41275;SDS011;27010;47.718;12.912;2024-01-07T13:45:06;4.40;;;3.97;;
41275;SDS011;27010;47.718;12.912;2024-01-07T13:48:09;5.30;;;4.10;;
41275;SDS011;27010;47.718;12.912;2024-01-07T13:51:11;5.10;;;4.37;;
41275;SDS011;27010;47.718;12.912;2024-01-07T13:54:13;4.53;;;3.90;;
41275;SDS011;27010;47.718;12.912;2024-01-07T13:57:16;4.20;;;3.57;;
41275;SDS011;27010;47.718;12.912;2024-01-07T14:00:18;3.97;;;3.30;;
41275;SDS011;27010;47.718;12.912;2024-01-07T14:03:21;3.83;;;3.03;;
41275;SDS011;27010;47.718;12.912;2024-01-07T14:06:23;3.57;;;2.63;;
41275;SDS011;27010;47.718;12.912;2024-01-07T14:09:25;3.20;;;2.90;;
41275;SDS011;27010;47.718;12.912;2024-01-07T14:12:27;3.37;;;2.73;;
41275;SDS011;27010;47.718;12.912;2024-01-07T14:15:29;3.80;;;2.97;;
41275;SDS011;27010;47.718;12.912;2024-01-07T14:18:32;3.63;;;3.27;;
41275;SDS011;27010;47.718;12.912;2024-01-07T14:21:34;4.00;;;3.47;;
41275;SDS011;27010;47.718;12.912;2024-01-07T14:24:36;5.90;;;4.23;;
41275;SDS011;27010;47.718;12.912;2024-01-07T14:27:39;7.27;;;5.07;;
41275;SDS011;27010;47.718;12.912;2024-01-07T14:30:41;6.00;;;5.07;;
41275;SDS011;27010;47.718;12.912;2024-01-07T14:33:43;4.80;;;3.73;;
41275;SDS011;27010;47.718;12.912;2024-01-07T14:36:46;4.30;;;3.40;;
41275;SDS011;27010;47.718;12.912;2024-01-07T14:39:48;4.13;;;3.10;;
41275;SDS011;27010;47.718;12.912;2024-01-07T14:42:50;6.60;;;4.10;;
41275;SDS011;27010;47.718;12.912;2024-01-07T14:45:54;7.80;;;7.00;;
41275;SDS011;27010;47.718;12.912;2024-01-07T14:48:57;7.00;;;4.63;;
41275;SDS011;27010;47.718;12.912;2024-01-07T14:52:00;5.87;;;3.90;;
41275;SDS011;27010;47.718;12.912;2024-01-07T14:55:02;5.03;;;4.03;;
41275;SDS011;27010;47.718;12.912;2024-01-07T14:58:05;5.23;;;4.63;;
41275;SDS011;27010;47.718;12.912;2024-01-07T15:01:07;4.73;;;4.03;;
41275;SDS011;27010;47.718;12.912;2024-01-07T15:04:10;5.87;;;3.50;;
41275;SDS011;27010;47.718;12.912;2024-01-07T15:07:13;4.57;;;3.90;;
41275;SDS011;27010;47.718;12.912;2024-01-07T15:10:18;4.27;;;3.27;;
41275;SDS011;27010;47.718;12.912;2024-01-07T15:13:20;4.37;;;3.20;;
41275;SDS011;27010;47.718;12.912;2024-01-07T15:16:25;4.20;;;3.50;;
41275;SDS011;27010;47.718;12.912;2024-01-07T15:19:27;4.00;;;3.23;;
41275;SDS011;27010;47.718;12.912;2024-01-07T15:22:29;5.17;;;3.20;;
41275;SDS011;27010;47.718;12.912;2024-01-07T15:25:31;3.70;;;2.97;;
41275;SDS011;27010;47.718;12.912;2024-01-07T15:28:34;3.97;;;3.17;;
41275;SDS011;27010;47.718;12.912;2024-01-07T15:31:37;2.63;;;2.40;;
41275;SDS011;27010;47.718;12.912;2024-01-07T15:34:40;3.23;;;2.40;;
41275;SDS011;27010;47.718;12.912;2024-01-07T15:37:44;4.40;;;2.73;;
41275;SDS011;27010;47.718;12.912;2024-01-07T15:40:46;5.20;;;3.10;;
41275;SDS011;27010;47.718;12.912;2024-01-07T15:43:48;3.73;;;2.97;;
41275;SDS011;27010;47.718;12.912;2024-01-07T15:46:50;4.17;;;3.23;;
41275;SDS011;27010;47.718;12.912;2024-01-07T15:49:52;4.03;;;3.23;;
41275;SDS011;27010;47.718;12.912;2024-01-07T15:52:54;3.87;;;2.83;;
41275;SDS011;27010;47.718;12.912;2024-01-07T15:56:01;4.23;;;3.13;;
41275;SDS011;27010;47.718;12.912;2024-01-07T15:59:04;4.03;;;3.20;;
41275;SDS011;27010;47.718;12.912;2024-01-07T16:02:06;6.50;;;3.97;;
41275;SDS011;27010;47.718;12.912;2024-01-07T16:05:08;5.03;;;3.57;;
41275;SDS011;27010;47.718;12.912;2024-01-07T16:08:10;5.73;;;3.33;;
41275;SDS011;27010;47.718;12.912;2024-01-07T16:11:13;6.57;;;4.67;;
41275;SDS011;27010;47.718;12.912;2024-01-07T16:14:18;6.57;;;4.60;;
41275;SDS011;27010;47.718;12.912;2024-01-07T16:17:26;5.73;;;4.07;;
41275;SDS011;27010;47.718;12.912;2024-01-07T16:20:29;5.87;;;4.47;;
41275;SDS011;27010;47.718;12.912;2024-01-07T16:23:32;7.20;;;5.10;;
41275;SDS011;27010;47.718;12.912;2024-01-07T16:26:34;7.87;;;5.47;;
41275;SDS011;27010;47.718;12.912;2024-01-07T16:29:37;7.87;;;5.40;;
41275;SDS011;27010;47.718;12.912;2024-01-07T16:32:46;9.23;;;5.20;;
41275;SDS011;27010;47.718;12.912;2024-01-07T16:35:50;6.70;;;5.00;;
41275;SDS011;27010;47.718;12.912;2024-01-07T16:38:53;5.90;;;4.43;;
41275;SDS011;27010;47.718;12.912;2024-01-07T16:41:58;6.47;;;4.43;;
41275;SDS011;27010;47.718;12.912;2024-01-07T16:45:00;6.97;;;4.80;;
41275;SDS011;27010;47.718;12.912;2024-01-07T16:48:03;6.60;;;4.60;;
41275;SDS011;27010;47.718;12.912;2024-01-07T16:51:07;7.37;;;4.57;;
41275;SDS011;27010;47.718;12.912;2024-01-07T16:54:14;9.33;;;6.07;;
41275;SDS011;27010;47.718;12.912;2024-01-07T16:57:17;7.80;;;5.93;;
41275;SDS011;27010;47.718;12.912;2024-01-07T17:00:19;8.10;;;6.10;;
41275;SDS011;27010;47.718;12.912;2024-01-07T17:03:21;8.23;;;5.77;;
41275;SDS011;27010;47.718;12.912;2024-01-07T17:06:24;9.03;;;6.00;;
41275;SDS011;27010;47.718;12.912;2024-01-07T17:09:26;8.37;;;6.10;;
41275;SDS011;27010;47.718;12.912;2024-01-07T17:12:28;8.17;;;5.90;;
41275;SDS011;27010;47.718;12.912;2024-01-07T17:15:30;7.53;;;6.03;;
41275;SDS011;27010;47.718;12.912;2024-01-07T17:18:33;9.20;;;7.00;;
41275;SDS011;27010;47.718;12.912;2024-01-07T17:21:35;9.17;;;6.13;;
41275;SDS011;27010;47.718;12.912;2024-01-07T17:24:38;8.80;;;5.93;;
41275;SDS011;27010;47.718;12.912;2024-01-07T17:27:40;8.67;;;6.63;;
41275;SDS011;27010;47.718;12.912;2024-01-07T17:30:42;10.40;;;7.10;;
41275;SDS011;27010;47.718;12.912;2024-01-07T17:33:44;8.33;;;5.90;;
41275;SDS011;27010;47.718;12.912;2024-01-07T17:36:47;9.03;;;6.13;;
41275;SDS011;27010;47.718;12.912;2024-01-07T17:39:49;8.67;;;5.67;;
41275;SDS011;27010;47.718;12.912;2024-01-07T17:42:51;8.87;;;6.17;;
41275;SDS011;27010;47.718;12.912;2024-01-07T17:45:54;7.27;;;5.53;;
41275;SDS011;27010;47.718;12.912;2024-01-07T17:48:56;9.27;;;7.40;;
41275;SDS011;27010;47.718;12.912;2024-01-07T17:51:58;9.37;;;6.80;;
41275;SDS011;27010;47.718;12.912;2024-01-07T17:55:00;8.90;;;6.57;;
41275;SDS011;27010;47.718;12.912;2024-01-07T17:58:03;10.83;;;7.70;;
41275;SDS011;27010;47.718;12.912;2024-01-07T18:01:08;10.33;;;7.57;;
41275;SDS011;27010;47.718;12.912;2024-01-07T18:04:11;9.00;;;6.80;;
41275;SDS011;27010;47.718;12.912;2024-01-07T18:07:13;9.23;;;7.03;;
41275;SDS011;27010;47.718;12.912;2024-01-07T18:38:54;10.83;;;6.00;;